Flight Track Log - Related Links

Times and Time Zones

All times are in EDT time to prevent confusion due to time zone crossing. See the N459RB flight status page for this flight to view local times or setup timezone preferences in your user account.

Time Position Orientation Groundspeed Altitude Reporting Facility
EDT Latitude Longitude Course Direction KTS MPH feet Rate Location/Type
Sun 03:56:30 PM 30.5442 -90.4578 292° West 82 94 1,900  Level Houston Center
Sun 03:57:19 PM 30.5508 -90.4769 292° West 80 92 2,400 874 Climbing Houston Center
Sun 03:58:13 PM 30.5622 -90.5006 299° West 94 108 3,400 750 Climbing Houston Center
Sun 03:59:11 PM 30.5714 -90.5208 298° West 84 97 3,800 500 Climbing Houston Center
Sun 04:00:13 PM 30.5794 -90.5447 291° West 83 96 4,400 726 Climbing Houston Center
Sun 04:01:15 PM 30.5908 -90.5747 294° West 83 96 5,300 726 Climbing Houston Center
Sun 04:02:17 PM 30.6014 -90.5992 297° West 84 97 5,900 336 Climbing Houston Center
Sun 04:03:20 PM 30.6128 -90.6283 294° West 90 104 6,000 48 Climbing Houston Center
Sun 04:04:21 PM 30.6306 -90.6667 298° West 117 135 6,000  Level Houston Center
Sun 04:05:23 PM 30.6464 -90.7056 295° West 127 146 6,000  Level Houston Center
Sun 04:06:25 PM 30.6633 -90.7447 297° West 132 152 6,000  Level Houston Center
Sun 04:07:27 PM 30.6833 -90.7975 294° West 141 162 6,000  Level Houston Center
Sun 04:08:29 PM 30.7011 -90.8394 296° West 144 166 6,000  Level Houston Center
Sun 04:09:31 PM 30.7169 -90.8811 294° West 143 165 6,000  Level Houston Center
Sun 04:10:33 PM 30.7336 -90.9211 296° West 141 162 6,000 48 Level Houston Center
Sun 04:11:35 PM 30.7519 -90.9608 298° West 140 161 6,100 48 Climbing Houston Center
Sun 04:12:37 PM 30.7689 -91.0017 296° West 140 161 6,100  Level Houston Center
Sun 04:13:39 PM 30.7892 -91.0503 296° West 140 161 6,100  Level Houston Center
Sun 04:14:41 PM 30.8069 -91.0917 297° West 142 163 6,100  Level Houston Center
Sun 04:15:43 PM 30.8233 -91.1292 297° West 142 163 6,100  Level Houston Center
Sun 04:16:45 PM 30.8397 -91.1703 295° West 142 163 6,100  Level Houston Center
Sun 04:17:47 PM 30.8608 -91.2189 297° West 141 162 6,100  Level Houston Center
Sun 04:18:49 PM 30.8775 -91.2581 296° West 136 157 6,100  Level Houston Center
Sun 04:19:51 PM 30.8950 -91.2989 297° West 139 160 6,100  Level Houston Center
Sun 04:20:53 PM 30.9083 -91.3400 291° West 137 158 6,100  Level Houston Center
Sun 04:22:41 PM 30.9322 -91.4153 290° West 136 157 6,100  Level Houston Center
Sun 04:23:42 PM 30.9461 -91.4625 289° West 139 160 6,100  Level Houston Center
Sun 04:24:42 PM 30.9600 -91.5072 290° West 141 162 6,100  Level Houston Center
Sun 04:25:43 PM 30.9717 -91.5500 288° West 140 161 6,100  Level Houston Center
Sun 04:26:43 PM 30.9831 -91.5925 287° West 137 158 6,100 -50 Level Houston Center
Sun 04:27:44 PM 30.9944 -91.6328 288° West 136 157 6,000  Descending Houston Center
Sun 04:28:45 PM 31.0083 -91.6775 290° West 138 159 6,100 50 Climbing Houston Center
Sun 04:29:45 PM 31.0219 -91.7200 291° West 145 167 6,100  Level Houston Center
Sun 04:30:46 PM 31.0358 -91.7672 289° West 146 168 6,100  Level Houston Center
Sun 04:31:46 PM 31.0472 -91.8075 288° West 143 165 6,100  Level Houston Center
Sun 04:32:47 PM 31.0608 -91.8525 289° West 139 160 6,100  Level Houston Center
Sun 04:33:17 PM 31.0661 -91.8686 291° West 140 161 6,100  Level Houston Center
Sun 04:33:48 PM 31.0725 -91.8975 284° West 138 159 6,100  Level Houston Center
Sun 04:34:19 PM 31.0783 -91.9114 296° West 138 159 6,100  Level Houston Center
Sun 04:35:21 PM 31.0919 -91.9531 291° West 139 160 6,100  Level Houston Center
Sun 04:36:23 PM 31.1072 -92.0056 289° West 141 162 6,100  Level Houston Center
Sun 04:37:25 PM 31.1200 -92.0497 289° West 144 166 6,100  Level Houston Center
Sun 04:38:27 PM 31.1356 -92.0947 292° West 146 168 6,100  Level Houston Center
Sun 04:39:29 PM 31.1478 -92.1417 287° West 151 174 6,100  Level Houston Center
Sun 04:40:31 PM 31.1617 -92.1864 290° West 148 170 6,100  Level Houston Center
Sun 04:41:33 PM 31.1747 -92.2300 289° West 144 166 6,100  Level Houston Center
Sun 04:42:53 PM 31.1969 -92.2975 291° West 140 161 6,100  Level Houston Center
Sun 04:43:36 PM 31.2061 -92.3239 292° West 141 162 6,100  Level Houston Center
Sun 04:44:38 PM 31.2197 -92.3697 289° West 147 169 6,100  Level Houston Center
Sun 04:45:40 PM 31.2333 -92.4144 290° West 146 168 6,100  Level Houston Center
Sun 04:46:42 PM 31.2464 -92.4603 288° West 147 169 6,100  Level Houston Center
Sun 04:47:45 PM 31.2592 -92.5100 287° West 148 170 6,100  Level Houston Center
Sun 04:48:46 PM 31.2792 -92.5472 302° West 139 160 6,100  Level Houston Center
Sun 04:49:48 PM 31.3022 -92.5867 304° West 141 162 6,100  Level Houston Center
Sun 04:50:50 PM 31.3228 -92.6253 302° West 140 161 6,100  Level Houston Center
Sun 04:51:52 PM 31.3478 -92.6697 303° West 138 159 6,100 44 Level Houston Center
Sun 04:53:05 PM 31.3717 -92.7181 300° West 138 159 6,200 45 Climbing Houston Center
Sun 04:54:06 PM 31.3906 -92.7531 302° West 137 158 6,200 -53 Level Houston Center
Sun 04:54:59 PM 31.4078 -92.7842 303° West 137 158 6,100 -52 Descending Houston Center
Sun 04:56:01 PM 31.4278 -92.8225 301° West 139 160 6,100  Level Houston Center
Sun 04:57:03 PM 31.4472 -92.8586 302° West 134 154 6,100 47 Level Houston Center
Sun 04:58:08 PM 31.4714 -92.9022 303° West 129 148 6,200  Climbing Houston Center
Sun 04:59:07 PM 31.4906 -92.9389 302° West 134 154 6,100 -50 Descending Houston Center
Sun 05:00:09 PM 31.5086 -92.9767 299° West 133 153 6,100 49 Level Houston Center
Sun 05:01:10 PM 31.5289 -93.0194 299° West 139 160 6,200 49 Climbing Houston Center
Sun 05:02:11 PM 31.5506 -93.0617 301° West 147 169 6,200  Level Houston Center
Sun 05:03:11 PM 31.5694 -93.0992 301° West 138 159 6,200 -50 Level Houston Center
Sun 05:04:12 PM 31.5908 -93.1389 302° West 134 154 6,100 -50 Descending Houston Center
Sun 05:05:12 PM 31.6097 -93.1739 302° West 138 159 6,100  Level Houston Center
Sun 05:06:13 PM 31.6333 -93.2161 303° West 145 167 6,100  Level Houston Center
Sun 05:07:23 PM 31.6558 -93.2606 301° West 150 173 6,100  Level Houston Center
Sun 05:08:14 PM 31.6739 -93.2983 299° West 142 163 6,100  Level Houston Center
Sun 05:09:09 PM 31.6925 -93.3308 304° West 138 159 6,100  Level Houston Center
Sun 05:10:09 PM 31.7117 -93.3711 299° West 134 154 6,100  Level Houston Center
Sun 05:11:31 PM 31.7403 -93.4197 305° West 137 158 6,100  Level Houston Center
Sun 05:12:33 PM 31.7611 -93.4586 302° West 139 160 6,100  Level Houston Center
Sun 05:13:35 PM 31.7819 -93.4986 302° West 143 165 6,100  Level Houston Center
Sun 05:14:37 PM 31.8019 -93.5381 301° West 140 161 6,100  Level Houston Center
Sun 05:15:39 PM 31.8219 -93.5758 302° West 137 158 6,100  Level Houston Center
Sun 05:16:41 PM 31.8464 -93.6222 302° West 140 161 6,100  Level Houston Center
Sun 05:17:43 PM 31.8653 -93.6622 299° West 139 160 6,100  Level Houston Center
Sun 05:18:45 PM 31.8867 -93.7014 303° West 141 162 6,100  Level Houston Center
Sun 05:19:47 PM 31.9061 -93.7419 299° West 142 163 6,100  Level Houston Center
Sun 05:20:49 PM 31.9278 -93.7808 303° West 143 165 6,100  Level Houston Center
Sun 05:21:51 PM 31.9483 -93.8208 301° West 142 163 6,100  Level Houston Center
Sun 05:22:53 PM 31.9719 -93.8675 301° West 141 162 6,100  Level Houston Center
Sun 05:23:55 PM 31.9933 -93.9069 303° West 142 163 6,100  Level Houston Center
Sun 05:24:46 PM 32.0069 -93.9444 293° West 142 163 6,100  Level Fort Worth Center
Sun 05:25:52 PM 32.0311 -93.9875 304° West 140 161 6,100  Level Fort Worth Center
Sun 05:26:53 PM 32.0489 -94.0286 297° West 141 162 6,100  Level Fort Worth Center
Sun 05:27:48 PM 32.0708 -94.0669 304° West 141 162 6,100  Level Fort Worth Center
Sun 05:28:48 PM 32.0886 -94.1031 300° West 138 159 6,100  Level Fort Worth Center
Sun 05:29:49 PM 32.1083 -94.1467 298° West 144 166 6,100  Level Fort Worth Center
Sun 05:30:50 PM 32.1281 -94.1850 301° West 141 162 6,100 -5 Level Fort Worth Center
Sun 05:33:00 PM 32.1722 -94.2657 303° West  Level FlightAware Approximate
Sun 05:40:00 PM 32.3079 -94.5319 301° West  Level FlightAware Approximate
Sun 05:41:00 PM 32.3271 -94.5702 301° West  Level FlightAware Approximate
Sun 05:42:00 PM 32.3462 -94.6085 301° West  Level FlightAware Approximate
Sun 05:43:00 PM 32.3653 -94.6467 301° West  Level FlightAware Approximate
Sun 05:44:00 PM 32.3843 -94.6850 301° West  Level FlightAware Approximate
Sun 05:45:00 PM 32.4034 -94.7234 301° West  Level FlightAware Approximate
Sun 05:46:00 PM 32.4244 -94.7600 313° West  Level FlightAware Approximate
Sun 05:47:00 PM 32.4498 -94.7928 313° West  Level FlightAware Approximate
Sun 05:48:00 PM 32.4751 -94.8256 312° West  Level FlightAware Approximate
Sun 05:49:00 PM 32.5005 -94.8585 312° West  Level FlightAware Approximate
Sun 05:50:00 PM 32.5258 -94.8913 312° West  Level FlightAware Approximate
Sun 05:50:35 PM 32.5608 -94.9461 312° West 143 165 6,000  Level Fort Worth Center
Sun 05:51:00 PM 32.5512 -94.9242 312° West  Level FlightAware Approximate
Sun 05:51:35 PM 32.5867 -94.9825 310° West 154 177 6,000  Level Fort Worth Center
Sun 05:52:00 PM 32.5765 -94.9571 312° West  Level FlightAware Approximate
Sun 05:52:35 PM 32.6103 -95.0161 310° West 165 190 6,000  Level Fort Worth Center
Sun 05:53:00 PM 32.6018 -94.9900 312° West  Level FlightAware Approximate
Sun 05:53:35 PM 32.6358 -95.0500 312° West 151 174 6,000  Level Fort Worth Center
Sun 05:54:00 PM 32.6271 -95.0230 312° West  Level FlightAware Approximate
Sun 05:54:35 PM 32.6636 -95.0814 316° Northwest 146 168 6,000  Level Fort Worth Center
Sun 05:55:35 PM 32.6892 -95.1153 312° West 141 162 6,000  Level Fort Worth Center
Sun 05:56:35 PM 32.7192 -95.1542 313° West 141 162 6,000  Level Fort Worth Center
Sun 05:57:35 PM 32.7447 -95.1881 312° West 141 162 6,000  Level Fort Worth Center
Sun 05:58:35 PM 32.7706 -95.2219 312° West 141 162 6,000  Level Fort Worth Center
Sun 05:59:35 PM 32.7983 -95.2558 314° West 136 157 6,000  Level Fort Worth Center
Sun 06:00:35 PM 32.8261 -95.2947 310° West 136 157 6,000 50 Level Fort Worth Center
Sun 06:01:35 PM 32.8453 -95.3289 304° West 142 163 6,100 50 Climbing Fort Worth Center
Sun 06:02:35 PM 32.8731 -95.3628 314° West 142 163 6,100  Level Fort Worth Center
Sun 06:03:35 PM 32.9008 -95.3969 314° West 135 155 6,100  Level Fort Worth Center
Sun 06:04:35 PM 32.9347 -95.4383 314° West 141 162 6,100  Level Fort Worth Center
Sun 06:05:35 PM 32.9625 -95.4697 317° Northwest 148 170 6,100  Level Fort Worth Center
Sun 06:06:35 PM 32.9881 -95.5089 308° West 149 171 6,100  Level Fort Worth Center
Sun 06:07:35 PM 33.0094 -95.5381 311° West 141 162 6,100 -50 Level Fort Worth Center
Sun 06:08:35 PM 33.0350 -95.5722 312° West 136 157 6,000  Descending Fort Worth Center
Sun 06:09:35 PM 33.0669 -95.6139 312° West 142 163 6,100  Climbing Fort Worth Center
Sun 06:10:35 PM 33.0944 -95.6481 314° West 147 169 6,000  Descending Fort Worth Center
Sun 06:11:35 PM 33.1158 -95.6797 309° West 147 169 6,100 50 Climbing Fort Worth Center
Sun 06:12:35 PM 33.1456 -95.7214 310° West 147 169 6,100  Level Fort Worth Center
Sun 06:13:35 PM 33.1733 -95.7581 312° West 147 169 6,100 50 Level Fort Worth Center
Sun 06:14:35 PM 33.2008 -95.7897 316° Northwest 141 162 6,200  Climbing Fort Worth Center
Sun 06:15:35 PM 33.2261 -95.8192 316° Northwest 136 157 6,100 -50 Descending Fort Worth Center
Sun 06:16:35 PM 33.2619 -95.8483 326° Northwest 136 157 6,100  Level Fort Worth Center
Sun 06:17:35 PM 33.2958 -95.8725 329° Northwest 136 157 6,100  Level Fort Worth Center
Sun 06:18:35 PM 33.3253 -95.8969 325° Northwest 136 157 6,100 -50 Level Fort Worth Center
Sun 06:19:35 PM 33.3589 -95.9189 331° Northwest 136 157 6,000  Descending Fort Worth Center
Sun 06:20:35 PM 33.3864 -95.9456 321° Northwest 136 157 6,100 50 Climbing Fort Worth Center
Sun 06:21:35 PM 33.4242 -95.9725 329° Northwest 136 157 6,100  Level Fort Worth Center
Sun 06:22:35 PM 33.4536 -95.9944 328° Northwest 136 157 6,100  Level Fort Worth Center
Sun 06:23:35 PM 33.4894 -96.0211 328° Northwest 136 157 6,100  Level Fort Worth Center
Sun 06:24:35 PM 33.5211 -96.0481 325° Northwest 141 162 6,100  Level Fort Worth Center
Sun 06:25:35 PM 33.5528 -96.0725 327° Northwest 141 162 6,100 -50 Level Fort Worth Center
Sun 06:26:35 PM 33.5842 -96.0994 324° Northwest 136 157 6,000  Descending Fort Worth Center
Sun 06:27:35 PM 33.6158 -96.1214 330° Northwest 136 157 6,100 50 Climbing Fort Worth Center
Sun 06:28:35 PM 33.6494 -96.1458 329° Northwest 136 157 6,100  Level Fort Worth Center
Sun 06:29:35 PM 33.6811 -96.1728 325° Northwest 136 157 6,100 -50 Level Fort Worth Center
Sun 06:30:35 PM 33.7106 -96.1950 328° Northwest 136 157 6,000  Descending Fort Worth Center
Sun 06:31:35 PM 33.7442 -96.2194 329° Northwest 136 157 6,100  Climbing Fort Worth Center
Sun 06:32:35 PM 33.7778 -96.2464 326° Northwest 136 157 6,000 -50 Descending Fort Worth Center
Sun 06:33:35 PM 33.8114 -96.2736 326° Northwest 141 162 6,000 50 Level Fort Worth Center
Sun 06:34:35 PM 33.8450 -96.3006 326° Northwest 141 162 6,100 50 Climbing Fort Worth Center
Sun 06:35:35 PM 33.8786 -96.3253 329° Northwest 141 162 6,100 -50 Level Fort Worth Center
Sun 06:36:35 PM 33.9100 -96.3497 327° Northwest 146 168 6,000  Descending Fort Worth Center
Sun 06:37:35 PM 33.9353 -96.3669 331° Northwest 146 168 6,100 50 Climbing Fort Worth Center
Sun 06:38:35 PM 33.9689 -96.3942 326° Northwest 140 161 6,100 -50 Level Fort Worth Center
Sun 06:39:35 PM 34.0089 -96.4289 324° Northwest 145 167 6,000  Descending Fort Worth Center
Sun 06:40:35 PM 34.0403 -96.4511 330° Northwest 145 167 6,100 50 Climbing Fort Worth Center
Sun 06:41:35 PM 34.0739 -96.4783 326° Northwest 145 167 6,100  Level Fort Worth Center
Sun 06:42:35 PM 34.1053 -96.5081 322° Northwest 150 173 6,100  Level Fort Worth Center
Sun 06:43:35 PM 34.1369 -96.5303 330° Northwest 150 173 6,100  Level Fort Worth Center
Sun 06:44:35 PM 34.1706 -96.5575 326° Northwest 150 173 6,100  Level Fort Worth Center
Sun 06:45:35 PM 34.2019 -96.5847 324° Northwest 150 173 6,100  Level Fort Worth Center
Sun 06:46:35 PM 34.2356 -96.6072 331° Northwest 150 173 6,100  Level Fort Worth Center
Sun 06:48:00 PM 34.2818 -96.6438 327° Northwest  Level FlightAware Approximate
Sun 06:48:35 PM 34.3006 -96.6594 327° Northwest 150 173 6,100  Level Fort Worth Center
Sun 06:49:35 PM 34.3339 -96.6867 326° Northwest 144 166 6,100 -50 Level Fort Worth Center
Sun 06:50:35 PM 34.3656 -96.7117 327° Northwest 144 166 6,000  Descending Fort Worth Center
Sun 06:51:35 PM 34.3969 -96.7364 327° Northwest 144 166 6,100 50 Climbing Fort Worth Center
Sun 06:52:35 PM 34.4306 -96.7639 326° Northwest 144 166 6,100  Level Fort Worth Center
Sun 06:53:35 PM 34.4639 -96.7889 328° Northwest 144 166 6,100  Level Fort Worth Center
Sun 06:54:35 PM 34.4933 -96.8164 322° Northwest 144 166 6,100  Level Fort Worth Center
Sun 06:55:35 PM 34.5267 -96.8414 328° Northwest 144 166 6,100  Level Fort Worth Center
Sun 06:56:35 PM 34.5603 -96.8664 329° Northwest 144 166 6,100  Level Fort Worth Center
Sun 06:57:35 PM 34.5936 -96.8914 328° Northwest 144 166 6,100  Level Fort Worth Center
Sun 06:58:35 PM 34.6231 -96.9189 322° Northwest 144 166 6,100  Level Fort Worth Center
Sun 06:59:35 PM 34.6586 -96.9439 330° Northwest 144 166 6,100  Level Fort Worth Center
Sun 07:00:35 PM 34.6900 -96.9692 326° Northwest 144 166 6,100  Level Fort Worth Center
Sun 07:01:35 PM 34.7214 -96.9942 327° Northwest 144 166 6,100  Level Fort Worth Center
Sun 07:02:57 PM 34.7633 -97.0369 320° Northwest 141 162 6,100  Level Fort Worth Center
Sun 07:03:27 PM 34.7800 -97.0494 328° Northwest 141 162 6,100 -61 Level Fort Worth Center
Sun 07:04:35 PM 34.8217 -97.0747 334° Northwest 144 166 6,000  Descending Fort Worth Center
Sun 07:05:35 PM 34.8553 -97.1022 326° Northwest 144 166 6,100 53 Climbing Fort Worth Center
Sun 07:06:29 PM 34.8844 -97.1300 322° Northwest 144 166 6,100  Level Fort Worth Center
Sun 07:07:29 PM 34.9178 -97.1553 328° Northwest 143 165 6,100  Level Fort Worth Center
Sun 07:08:35 PM 34.9556 -97.1831 329° Northwest 149 171 6,100  Level Fort Worth Center
Sun 07:09:35 PM 34.9869 -97.2058 329° Northwest 149 171 6,100  Level Fort Worth Center
Sun 07:10:31 PM 35.0244 -97.2208 342° North 142 163 6,100  Level Fort Worth Center
Sun 07:11:32 PM 35.0558 -97.2461 327° Northwest 140 161 6,100  Level Fort Worth Center
Sun 07:12:33 PM 35.0828 -97.2817 313° West 143 165 6,100  Level Fort Worth Center
Sun 07:13:33 PM 35.1142 -97.3197 315° West 142 163 6,100  Level Fort Worth Center
Sun 07:14:34 PM 35.1414 -97.3525 315° West 141 162 6,100 -198 Level Fort Worth Center
Sun 07:15:34 PM 35.1706 -97.3856 317° Northwest 147 169 5,700 -298 Descending Fort Worth Center
Sun 07:16:35 PM 35.1978 -97.4161 317° Northwest 143 165 5,500 -248 Descending Fort Worth Center
Sun 07:17:35 PM 35.2247 -97.4542 311° West 143 165 5,200 -248 Descending Fort Worth Center
Sun 07:18:36 PM 35.2561 -97.4950 313° West 147 169 5,000 -246 Descending Fort Worth Center
Sun 07:19:37 PM 35.2894 -97.5231 326° Northwest 147 169 4,700 -347 Descending Fort Worth Center
Sun 07:20:37 PM 35.3311 -97.5306 352° North 143 165 4,300 -298 Descending Fort Worth Center
Sun 07:21:38 PM 35.3708 -97.5383 351° North 140 161 4,100 -148 Descending Fort Worth Center
Sun 07:22:39 PM 35.4083 -97.5408 357° North 137 158 4,000 -344 Descending Fort Worth Center
Sun 07:23:40 PM 35.4417 -97.5717 323° Northwest 161 185 3,400 -694 Descending Fort Worth Center
Sun 07:24:40 PM 35.4728 -97.6072 317° Northwest 155 178 2,600 -545 Descending Fort Worth Center
Sun 07:25:41 PM 35.4894 -97.6456 298° West 96 110 2,300 -496 Descending Fort Worth Center
Sun 07:26:41 PM 35.5122 -97.6481 355° North 74 85 1,600 -700 Descending Fort Worth Center
Sun 07:28:00 PM 35.5333 -97.6333 North  Level FlightAware Approximate
Sun 07:35:00 PM 35.5342 -97.6471 North  Level Estimated

Login

Don't have an account? Register now (free) for customized features, flight alerts, and more!